Terminal Aerodrome Forecast
Issued by NWS Goodland, KS

Home | Current Version | Previous Version | Text Only | Print | Product List | Glossary On
Versions: 1 2 3 4 5 6 7 8 9 10 11 12 13 14 15 16 17 18 19 20 21 22
936
FTUS43 KGLD 271757 AAA
TAFGLD
TAF AMD
KGLD 271757Z 2718/2818 13008KT P6SM BKN050
     FM280900 15006KT P6SM BKN015=

USA.gov is the U.S. government's official web portal to all federal, state and local government web resources and services.